Time;durP1;ratioP1;P1;durP2;ratioP2;P2;SDS_P1;SDS_P2;PMS_P1;PMS_P2;Temp;Humidity;BMP_temperature;BMP_pressure;BME280_temperature;BME280_humidity;BME280_pressure;Samples;Min_cycle;Max_cycle;Signal;HPM_P1;HPM_P2
2021/06/21 00:02:23;;;;;;;10.55;2.15;;;;;;;;;;5053818;28;20039;-51
2021/06/21 00:04:50;;;;;;;6.80;1.98;;;;;;;;;;5054655;28;20025;-51
2021/06/21 00:07:16;;;;;;;8.60;1.83;;;;;;;;;;5054426;28;20048;-51
2021/06/21 00:09:42;;;;;;;12.23;1.60;;;;;;;;;;5053575;28;20397;-51
2021/06/21 00:12:09;;;;;;;7.38;1.30;;;;;;;;;;5053605;28;20074;-51
2021/06/21 00:14:35;;;;;;;10.70;1.52;;;;;;;;;;5054180;28;20029;-51
2021/06/21 00:17:01;;;;;;;3.85;1.85;;;;;;;;;;5054286;28;20031;-51
2021/06/21 00:19:27;;;;;;;10.32;1.70;;;;;;;;;;5054251;28;20123;-51
2021/06/21 00:21:54;;;;;;;3.53;1.38;;;;;;;;;;5053454;28;20017;-51
2021/06/21 00:24:20;;;;;;;4.88;1.33;;;;;;;;;;5053568;28;20033;-51
2021/06/21 00:26:47;;;;;;;11.25;1.48;;;;;;;;;;5053871;28;20021;-51
2021/06/21 00:29:13;;;;;;;5.15;1.42;;;;;;;;;;5054092;28;20071;-51
2021/06/21 00:31:39;;;;;;;12.23;1.63;;;;;;;;;;5053163;28;20099;-51
2021/06/21 00:34:05;;;;;;;6.47;1.60;;;;;;;;;;5053476;28;20104;-51
2021/06/21 00:36:31;;;;;;;13.40;1.70;;;;;;;;;;5053867;28;20032;-51
2021/06/21 00:38:57;;;;;;;8.43;1.45;;;;;;;;;;5053726;28;20028;-51
2021/06/21 00:41:23;;;;;;;7.38;1.65;;;;;;;;;;5053114;28;20099;-51
2021/06/21 00:43:49;;;;;;;5.80;1.33;;;;;;;;;;5053709;28;20025;-51
2021/06/21 00:46:15;;;;;;;6.25;1.38;;;;;;;;;;5054054;28;20032;-51
2021/06/21 00:48:42;;;;;;;6.78;1.83;;;;;;;;;;5052942;28;20371;-51
2021/06/21 00:51:08;;;;;;;5.90;1.65;;;;;;;;;;5052736;28;20108;-51
2021/06/21 00:53:35;;;;;;;8.93;1.58;;;;;;;;;;5053758;28;20040;-51
2021/06/21 00:56:01;;;;;;;11.13;1.10;;;;;;;;;;5053602;28;20063;-51
2021/06/21 00:58:27;;;;;;;13.85;1.75;;;;;;;;;;5052916;28;20033;-51
2021/06/21 01:00:53;;;;;;;3.63;0.93;;;;;;;;;;5052361;28;20024;-51
2021/06/21 01:03:19;;;;;;;7.95;1.35;;;;;;;;;;5053722;28;20029;-51
2021/06/21 01:05:45;;;;;;;7.10;1.58;;;;;;;;;;5052779;28;20031;-51
2021/06/21 01:08:11;;;;;;;2.75;0.95;;;;;;;;;;5053046;28;20359;-51
2021/06/21 01:10:38;;;;;;;3.38;1.15;;;;;;;;;;5052426;28;20021;-52
2021/06/21 01:13:23;;;;;;;4.13;1.40;;;;;;;;;;5053380;28;20033;-52
2021/06/21 01:16:09;;;;;;;6.72;1.35;;;;;;;;;;5052584;28;20020;-51
2021/06/21 01:18:37;;;;;;;8.05;1.17;;;;;;;;;;5052837;28;20036;-52
2021/06/21 01:21:21;;;;;;;7.47;1.50;;;;;;;;;;5052590;28;20029;-51
2021/06/21 01:23:53;;;;;;;3.63;1.15;;;;;;;;;;5052804;28;20048;-51
2021/06/21 01:26:19;;;;;;;2.78;1.25;;;;;;;;;;5052993;28;20401;-51
2021/06/21 01:29:04;;;;;;;9.20;1.42;;;;;;;;;;5052792;28;20463;-51
2021/06/21 01:31:51;;;;;;;7.65;1.33;;;;;;;;;;5052203;28;20070;-51
2021/06/21 01:34:18;;;;;;;14.02;1.50;;;;;;;;;;5052616;28;20033;-51
2021/06/21 01:36:50;;;;;;;12.38;1.13;;;;;;;;;;5052801;28;20468;-51
2021/06/21 01:39:17;;;;;;;6.10;1.58;;;;;;;;;;5052724;28;20064;-51
2021/06/21 01:41:44;;;;;;;1.77;1.05;;;;;;;;;;5051961;28;20025;-51
2021/06/21 01:44:12;;;;;;;10.93;1.70;;;;;;;;;;5052701;28;20440;-51
2021/06/21 01:46:40;;;;;;;17.17;1.42;;;;;;;;;;5052626;28;20483;-51
2021/06/21 01:49:09;;;;;;;3.83;1.30;;;;;;;;;;5052920;28;20025;-51
2021/06/21 01:51:36;;;;;;;15.60;2.10;;;;;;;;;;5051725;28;20060;-51
2021/06/21 01:54:03;;;;;;;6.88;1.85;;;;;;;;;;5052551;28;20045;-51
2021/06/21 01:56:35;;;;;;;9.52;1.70;;;;;;;;;;5052783;28;20421;-51
2021/06/21 01:59:02;;;;;;;5.00;1.10;;;;;;;;;;5052783;28;20056;-51
2021/06/21 02:01:28;;;;;;;2.42;1.35;;;;;;;;;;5051963;28;20017;-51
2021/06/21 02:03:55;;;;;;;10.57;1.38;;;;;;;;;;5052626;28;20029;-51
2021/06/21 02:06:22;;;;;;;2.83;1.20;;;;;;;;;;5051918;28;20452;-51
2021/06/21 02:08:52;;;;;;;3.78;1.58;;;;;;;;;;5052785;28;20021;-51
2021/06/21 02:11:18;;;;;;;11.80;1.33;;;;;;;;;;5052008;28;20021;-51
2021/06/21 02:13:45;;;;;;;4.88;1.60;;;;;;;;;;5055008;28;20048;-51
2021/06/21 02:16:12;;;;;;;9.65;1.83;;;;;;;;;;5056617;28;20013;-51
2021/06/21 02:18:38;;;;;;;8.40;1.58;;;;;;;;;;5056325;28;20051;-51
2021/06/21 02:21:05;;;;;;;9.80;1.70;;;;;;;;;;5055617;28;20033;-51
2021/06/21 02:23:31;;;;;;;10.50;1.40;;;;;;;;;;5056388;28;20028;-51
2021/06/21 02:25:57;;;;;;;12.52;2.00;;;;;;;;;;5056494;28;20021;-51
2021/06/21 02:28:25;;;;;;;7.93;1.85;;;;;;;;;;5056058;28;20032;-51
2021/06/21 02:30:52;;;;;;;7.55;2.08;;;;;;;;;;5055583;28;20025;-51
2021/06/21 02:33:18;;;;;;;9.05;1.88;;;;;;;;;;5056248;28;20071;-51
2021/06/21 02:35:45;;;;;;;10.35;2.05;;;;;;;;;;5056299;28;20055;-51
2021/06/21 02:38:11;;;;;;;5.95;1.33;;;;;;;;;;5056444;28;20048;-51
2021/06/21 02:40:38;;;;;;;3.45;1.50;;;;;;;;;;5055332;28;20027;-51
2021/06/21 02:43:04;;;;;;;6.25;2.20;;;;;;;;;;5055763;28;20113;-51
2021/06/21 02:45:30;;;;;;;7.72;1.40;;;;;;;;;;5055848;28;20032;-51
2021/06/21 02:47:57;;;;;;;11.10;1.77;;;;;;;;;;5042000;28;20033;-51
2021/06/21 02:50:23;;;;;;;10.75;2.35;;;;;;;;;;5055281;28;20057;-52
2021/06/21 02:52:58;;;;;;;12.38;3.50;;;;;;;;;;5055459;28;20367;-51
2021/06/21 02:55:29;;;;;;;6.70;2.47;;;;;;;;;;5055566;28;20025;-51
2021/06/21 02:58:01;;;;;;;9.05;1.92;;;;;;;;;;5055523;28;20029;-51
2021/06/21 03:00:28;;;;;;;7.50;1.88;;;;;;;;;;5054807;28;20392;-51
2021/06/21 03:02:57;;;;;;;6.22;1.90;;;;;;;;;;5055433;28;20032;-51
2021/06/21 03:05:24;;;;;;;7.10;2.05;;;;;;;;;;5055963;28;20360;-51
2021/06/21 03:07:51;;;;;;;6.85;2.15;;;;;;;;;;5055126;28;20036;-51
2021/06/21 03:10:17;;;;;;;10.15;3.63;;;;;;;;;;5054964;28;20021;-51
2021/06/21 03:12:45;;;;;;;5.57;2.35;;;;;;;;;;5055287;28;20028;-51
2021/06/21 03:15:12;;;;;;;9.82;2.60;;;;;;;;;;5055425;28;20067;-51
2021/06/21 03:17:39;;;;;;;5.60;2.70;;;;;;;;;;5055391;28;20112;-51
2021/06/21 03:20:05;;;;;;;13.27;3.22;;;;;;;;;;5054676;28;20040;-51
2021/06/21 03:22:32;;;;;;;8.80;2.30;;;;;;;;;;5055153;28;20017;-51
2021/06/21 03:24:58;;;;;;;7.55;2.75;;;;;;;;;;5053825;28;20021;-50
2021/06/21 03:27:30;;;;;;;16.92;3.80;;;;;;;;;;5055532;28;20102;-51
2021/06/21 03:29:57;;;;;;;8.95;2.97;;;;;;;;;;5055052;28;20104;-51
2021/06/21 03:32:25;;;;;;;13.23;2.85;;;;;;;;;;5053986;28;20025;-51
2021/06/21 03:34:51;;;;;;;10.80;3.45;;;;;;;;;;5054634;28;20459;-51
2021/06/21 03:37:17;;;;;;;14.43;3.05;;;;;;;;;;5055168;28;20025;-51
2021/06/21 03:39:43;;;;;;;14.07;2.78;;;;;;;;;;5054840;28;20043;-51
2021/06/21 03:42:09;;;;;;;7.45;2.08;;;;;;;;;;5050549;28;20104;-51
2021/06/21 03:44:35;;;;;;;7.63;1.95;;;;;;;;;;5034771;28;20465;-51
2021/06/21 03:47:01;;;;;;;6.72;2.28;;;;;;;;;;5035386;28;20025;-51
2021/06/21 03:49:27;;;;;;;12.07;2.42;;;;;;;;;;5034528;28;20037;-50
2021/06/21 03:51:53;;;;;;;10.48;2.00;;;;;;;;;;5033900;28;20033;-51
2021/06/21 03:54:19;;;;;;;5.25;2.45;;;;;;;;;;5034973;28;20036;-51
2021/06/21 03:56:45;;;;;;;4.60;2.22;;;;;;;;;;5034699;28;20025;-51
2021/06/21 03:59:11;;;;;;;11.85;2.22;;;;;;;;;;5035399;28;20468;-51
2021/06/21 04:01:38;;;;;;;5.72;1.58;;;;;;;;;;5053563;28;20025;-51
2021/06/21 04:04:05;;;;;;;6.72;1.92;;;;;;;;;;5054314;28;20028;-51
2021/06/21 04:06:31;;;;;;;9.27;1.90;;;;;;;;;;5054764;28;20017;-51
2021/06/21 04:08:57;;;;;;;5.55;1.85;;;;;;;;;;5054328;28;20406;-51
2021/06/21 04:11:26;;;;;;;10.63;2.20;;;;;;;;;;5052964;28;20502;-51
2021/06/21 04:13:53;;;;;;;5.88;2.10;;;;;;;;;;5054362;28;20044;-51
2021/06/21 04:16:19;;;;;;;14.13;2.28;;;;;;;;;;5054337;28;20103;-51
2021/06/21 04:18:45;;;;;;;7.38;2.22;;;;;;;;;;5053697;28;20363;-50
2021/06/21 04:21:11;;;;;;;19.23;2.10;;;;;;;;;;5053128;28;20464;-51
2021/06/21 04:23:37;;;;;;;4.90;1.45;;;;;;;;;;5054327;28;20056;-51
2021/06/21 04:26:03;;;;;;;9.13;2.00;;;;;;;;;;5054299;28;20053;-51
2021/06/21 04:28:29;;;;;;;12.68;2.10;;;;;;;;;;5053772;28;20351;-51
2021/06/21 04:30:55;;;;;;;12.20;2.08;;;;;;;;;;5052944;28;20440;-51
2021/06/21 04:33:21;;;;;;;16.38;1.95;;;;;;;;;;5053456;28;20033;-51
2021/06/21 04:35:47;;;;;;;11.55;1.77;;;;;;;;;;5053448;28;20031;-51
2021/06/21 04:38:16;;;;;;;9.25;1.55;;;;;;;;;;5053797;28;20021;-51
2021/06/21 04:40:42;;;;;;;7.00;1.67;;;;;;;;;;5052906;28;20456;-51
2021/06/21 04:43:09;;;;;;;6.88;1.35;;;;;;;;;;5053348;28;20078;-51
2021/06/21 04:45:35;;;;;;;4.35;1.52;;;;;;;;;;5052864;28;20052;-51
2021/06/21 04:48:02;;;;;;;17.90;2.13;;;;;;;;;;5052630;28;20032;-51
2021/06/21 04:50:28;;;;;;;7.95;1.75;;;;;;;;;;5053085;28;20068;-51
2021/06/21 04:52:54;;;;;;;8.75;2.38;;;;;;;;;;5053428;28;20480;-51
2021/06/21 04:55:23;;;;;;;13.93;2.38;;;;;;;;;;5053617;28;20033;-51
2021/06/21 04:57:49;;;;;;;7.85;1.67;;;;;;;;;;5053246;28;20470;-51
2021/06/21 05:00:17;;;;;;;9.75;1.70;;;;;;;;;;5052455;28;20029;-51
2021/06/21 05:02:43;;;;;;;12.40;1.85;;;;;;;;;;5053078;28;20455;-51
2021/06/21 05:05:10;;;;;;;9.43;2.42;;;;;;;;;;5053124;28;20017;-51
2021/06/21 05:07:36;;;;;;;4.93;1.48;;;;;;;;;;5053285;28;20432;-51
2021/06/21 05:10:04;;;;;;;11.55;2.10;;;;;;;;;;5053345;28;20020;-51
2021/06/21 05:12:30;;;;;;;10.43;1.52;;;;;;;;;;5052915;28;20040;-51
2021/06/21 05:14:56;;;;;;;8.40;2.10;;;;;;;;;;5052706;28;20047;-51
2021/06/21 05:17:22;;;;;;;9.98;1.80;;;;;;;;;;5053276;28;20036;-51
2021/06/21 05:19:48;;;;;;;11.43;1.73;;;;;;;;;;5052653;28;20471;-51
2021/06/21 05:22:14;;;;;;;9.02;1.25;;;;;;;;;;5052437;28;20025;-51
2021/06/21 05:24:40;;;;;;;8.63;1.58;;;;;;;;;;5052888;28;20472;-51
2021/06/21 05:27:06;;;;;;;6.65;1.80;;;;;;;;;;5053051;28;20025;-51
2021/06/21 05:29:33;;;;;;;10.43;1.60;;;;;;;;;;5052665;28;20017;-51
2021/06/21 05:32:00;;;;;;;8.27;1.35;;;;;;;;;;5051627;28;20033;-51
2021/06/21 05:34:26;;;;;;;6.38;1.70;;;;;;;;;;5052854;28;20057;-51
2021/06/21 05:36:52;;;;;;;12.15;1.80;;;;;;;;;;5052972;28;20032;-51
2021/06/21 05:39:18;;;;;;;3.55;1.30;;;;;;;;;;5052668;28;20031;-51
2021/06/21 05:41:44;;;;;;;9.25;1.88;;;;;;;;;;5052097;28;20017;-51
2021/06/21 05:44:10;;;;;;;5.35;1.75;;;;;;;;;;5052353;28;20025;-51
2021/06/21 05:46:36;;;;;;;16.30;2.42;;;;;;;;;;5052109;28;20155;-51
2021/06/21 05:49:02;;;;;;;10.65;1.90;;;;;;;;;;5052128;28;20111;-51
2021/06/21 05:51:28;;;;;;;9.32;2.00;;;;;;;;;;5052315;28;20081;-51
2021/06/21 05:53:54;;;;;;;6.60;1.75;;;;;;;;;;5052880;28;20524;-51
2021/06/21 05:56:20;;;;;;;8.68;2.30;;;;;;;;;;5052542;28;20032;-53
2021/06/21 05:58:46;;;;;;;10.18;1.92;;;;;;;;;;5052208;28;20047;-53
2021/06/21 06:01:12;;;;;;;7.68;1.75;;;;;;;;;;5051962;28;20051;-53
2021/06/21 06:03:38;;;;;;;7.72;2.00;;;;;;;;;;5052734;28;20029;-53
2021/06/21 06:06:05;;;;;;;7.95;1.92;;;;;;;;;;5052485;28;20070;-53
2021/06/21 06:08:31;;;;;;;8.00;1.88;;;;;;;;;;5052481;28;20037;-53
2021/06/21 06:10:57;;;;;;;3.03;1.45;;;;;;;;;;5051727;28;20029;-54
2021/06/21 06:13:23;;;;;;;5.72;1.70;;;;;;;;;;5052303;28;20531;-53
2021/06/21 06:15:49;;;;;;;4.40;1.40;;;;;;;;;;5052962;28;20120;-54
2021/06/21 06:18:16;;;;;;;11.95;1.60;;;;;;;;;;5052467;28;20052;-54
2021/06/21 06:20:42;;;;;;;11.50;1.80;;;;;;;;;;5051412;28;20055;-54
2021/06/21 06:23:08;;;;;;;6.10;1.38;;;;;;;;;;5052450;28;20029;-54
2021/06/21 06:25:36;;;;;;;9.23;1.73;;;;;;;;;;5052027;28;20074;-54
2021/06/21 06:28:03;;;;;;;6.95;1.70;;;;;;;;;;5052582;28;20094;-54
2021/06/21 06:30:29;;;;;;;8.77;1.70;;;;;;;;;;5051657;28;20397;-54
2021/06/21 06:32:55;;;;;;;4.80;1.60;;;;;;;;;;5051991;28;20034;-54
2021/06/21 06:35:21;;;;;;;10.30;2.15;;;;;;;;;;5052249;28;20028;-54
2021/06/21 06:37:49;;;;;;;8.35;1.20;;;;;;;;;;5050950;28;20360;-54
2021/06/21 06:40:15;;;;;;;7.85;1.55;;;;;;;;;;5050029;28;20029;-54
2021/06/21 06:42:42;;;;;;;7.82;1.77;;;;;;;;;;5052051;28;20104;-54
2021/06/21 06:45:08;;;;;;;3.67;1.20;;;;;;;;;;5052435;28;20037;-54
2021/06/21 06:47:34;;;;;;;6.03;1.52;;;;;;;;;;5052211;28;20221;-54
2021/06/21 06:50:01;;;;;;;6.18;1.50;;;;;;;;;;5052207;28;20051;-54
2021/06/21 06:52:27;;;;;;;10.63;1.45;;;;;;;;;;5051412;28;20086;-54
2021/06/21 06:57:39;;;;;;;7.18;1.20;;;;;;;;;;5052270;28;20371;-54
2021/06/21 07:00:10;;;;;;;4.70;1.33;;;;;;;;;;5054618;28;20102;-54
2021/06/21 07:02:36;;;;;;;3.88;1.50;;;;;;;;;;5055704;28;20048;-54
2021/06/21 07:05:03;;;;;;;6.72;1.50;;;;;;;;;;5055625;28;20029;-54
2021/06/21 07:07:29;;;;;;;4.75;1.35;;;;;;;;;;5054090;28;20151;-54
2021/06/21 07:09:55;;;;;;;2.70;1.00;;;;;;;;;;5055470;28;20445;-54
2021/06/21 07:12:21;;;;;;;5.22;1.65;;;;;;;;;;5054545;28;20467;-54
2021/06/21 07:14:47;;;;;;;7.45;1.67;;;;;;;;;;5055745;28;20450;-54
2021/06/21 07:17:13;;;;;;;6.55;1.92;;;;;;;;;;5055117;28;20021;-54
2021/06/21 07:19:40;;;;;;;10.68;2.15;;;;;;;;;;5055365;28;20476;-54
2021/06/21 07:22:07;;;;;;;11.52;1.48;;;;;;;;;;5054430;28;20112;-54
2021/06/21 07:24:33;;;;;;;6.80;1.75;;;;;;;;;;5055177;28;20048;-54
2021/06/21 07:26:59;;;;;;;4.72;1.42;;;;;;;;;;5055200;28;20032;-54
2021/06/21 07:29:25;;;;;;;6.10;1.40;;;;;;;;;;5055045;28;20024;-54
2021/06/21 07:31:51;;;;;;;6.20;1.50;;;;;;;;;;5054268;28;20033;-54
2021/06/21 07:34:17;;;;;;;5.95;1.35;;;;;;;;;;5054630;28;20033;-54
2021/06/21 07:36:43;;;;;;;9.10;1.77;;;;;;;;;;5054066;28;20021;-54
2021/06/21 07:39:09;;;;;;;5.75;1.70;;;;;;;;;;5054890;28;20029;-54
2021/06/21 07:41:35;;;;;;;3.17;1.10;;;;;;;;;;5054257;28;20027;-54
2021/06/21 07:44:01;;;;;;;6.00;1.70;;;;;;;;;;5054858;28;20367;-55
2021/06/21 07:46:27;;;;;;;8.93;1.38;;;;;;;;;;5054470;28;20025;-54
2021/06/21 07:48:54;;;;;;;11.55;1.90;;;;;;;;;;5054991;28;20099;-54
2021/06/21 07:51:20;;;;;;;4.88;1.90;;;;;;;;;;5053947;28;20082;-54
2021/06/21 07:53:50;;;;;;;7.63;1.60;;;;;;;;;;5054672;28;20041;-54
2021/06/21 07:56:16;;;;;;;4.30;1.10;;;;;;;;;;5054624;28;20029;-54
2021/06/21 07:58:42;;;;;;;8.70;1.75;;;;;;;;;;5052901;28;20029;-54
2021/06/21 08:01:11;;;;;;;6.75;1.80;;;;;;;;;;5053704;28;20021;-54
2021/06/21 08:03:37;;;;;;;5.55;1.60;;;;;;;;;;5054234;28;20044;-54
2021/06/21 08:06:04;;;;;;;9.20;1.50;;;;;;;;;;5054572;28;20040;-54
2021/06/21 08:08:30;;;;;;;3.80;1.42;;;;;;;;;;5054344;28;20456;-54
2021/06/21 08:10:56;;;;;;;2.20;1.08;;;;;;;;;;5052817;28;20100;-54
2021/06/21 08:13:22;;;;;;;2.50;1.23;;;;;;;;;;5054342;28;20475;-54
2021/06/21 08:15:49;;;;;;;12.27;1.73;;;;;;;;;;5054284;28;20359;-54
2021/06/21 08:18:15;;;;;;;5.10;1.33;;;;;;;;;;5054308;28;20044;-55
2021/06/21 08:20:44;;;;;;;8.30;1.65;;;;;;;;;;5053338;28;20036;-54
2021/06/21 08:23:11;;;;;;;5.40;1.50;;;;;;;;;;5053869;28;20029;-54
2021/06/21 08:25:37;;;;;;;4.78;1.70;;;;;;;;;;5054216;28;20104;-54
2021/06/21 08:28:03;;;;;;;3.53;1.27;;;;;;;;;;5054212;28;20056;-54
2021/06/21 08:30:29;;;;;;;4.25;1.30;;;;;;;;;;5053562;28;20262;-54
2021/06/21 08:32:55;;;;;;;3.22;1.63;;;;;;;;;;5053171;28;20444;-54
2021/06/21 08:35:22;;;;;;;6.82;1.42;;;;;;;;;;5053865;28;20068;-54
2021/06/21 08:37:48;;;;;;;5.20;1.50;;;;;;;;;;5054031;28;20028;-54
2021/06/21 08:40:15;;;;;;;4.10;1.50;;;;;;;;;;5053208;28;20027;-54
2021/06/21 08:42:41;;;;;;;4.32;1.92;;;;;;;;;;5053792;28;20061;-54
2021/06/21 08:45:08;;;;;;;3.20;1.20;;;;;;;;;;5053605;28;20103;-54
2021/06/21 08:47:34;;;;;;;3.15;1.35;;;;;;;;;;5053092;28;20108;-54
2021/06/21 08:50:01;;;;;;;2.60;1.05;;;;;;;;;;5053859;28;20103;-54
2021/06/21 08:52:27;;;;;;;3.40;1.67;;;;;;;;;;5052726;28;20052;-54
2021/06/21 08:54:53;;;;;;;3.45;1.20;;;;;;;;;;5053640;28;20070;-54
2021/06/21 08:57:20;;;;;;;2.63;1.08;;;;;;;;;;5053988;28;20043;-54
2021/06/21 08:59:46;;;;;;;6.47;1.45;;;;;;;;;;5053674;28;20021;-54
2021/06/21 09:02:13;;;;;;;4.28;1.48;;;;;;;;;;5052260;28;20044;-54
2021/06/21 09:04:40;;;;;;;4.25;1.42;;;;;;;;;;5053422;28;20029;-54
2021/06/21 09:07:16;;;;;;;7.90;1.40;;;;;;;;;;5053331;28;20013;-54
2021/06/21 09:09:42;;;;;;;2.53;1.10;;;;;;;;;;5053061;28;20494;-54
2021/06/21 09:12:08;;;;;;;10.63;1.33;;;;;;;;;;5052218;28;20025;-54
2021/06/21 09:14:36;;;;;;;4.40;1.52;;;;;;;;;;5052770;28;20133;-54
2021/06/21 09:17:07;;;;;;;2.67;1.20;;;;;;;;;;5053089;28;20352;-54
2021/06/21 09:19:44;;;;;;;9.27;1.75;;;;;;;;;;5053182;28;20041;-54
2021/06/21 09:22:23;;;;;;;2.55;1.25;;;;;;;;;;5052138;28;20013;-54
2021/06/21 09:24:49;;;;;;;3.58;1.40;;;;;;;;;;5053212;28;20039;-54
2021/06/21 09:27:18;;;;;;;13.32;1.40;;;;;;;;;;5053002;28;20045;-55
2021/06/21 09:29:44;;;;;;;4.53;1.30;;;;;;;;;;5053273;28;20025;-54
2021/06/21 09:32:10;;;;;;;2.58;1.40;;;;;;;;;;5052056;28;20049;-54
2021/06/21 09:34:40;;;;;;;2.55;1.02;;;;;;;;;;5053454;28;20025;-54
2021/06/21 09:37:11;;;;;;;2.65;1.13;;;;;;;;;;5052867;28;20055;-54
2021/06/21 09:39:42;;;;;;;4.65;1.48;;;;;;;;;;5052563;28;20112;-54
2021/06/21 09:42:13;;;;;;;3.17;1.17;;;;;;;;;;5051979;28;20025;-54
2021/06/21 09:44:40;;;;;;;2.80;1.38;;;;;;;;;;5053015;28;20029;-54
2021/06/21 09:47:12;;;;;;;1.08;0.88;;;;;;;;;;5052485;28;20049;-54
2021/06/21 09:49:38;;;;;;;8.57;1.40;;;;;;;;;;5052788;28;20059;-54
2021/06/21 09:52:05;;;;;;;2.67;1.58;;;;;;;;;;5051328;28;20075;-54
2021/06/21 09:54:34;;;;;;;4.53;1.42;;;;;;;;;;5052449;28;20037;-54
2021/06/21 09:57:12;;;;;;;5.45;1.42;;;;;;;;;;5052669;28;20021;-54
2021/06/21 09:59:46;;;;;;;3.20;1.48;;;;;;;;;;5052908;28;20071;-54
2021/06/21 10:02:17;;;;;;;3.47;1.60;;;;;;;;;;5050441;28;20490;-54
2021/06/21 10:04:44;;;;;;;1.42;0.88;;;;;;;;;;5052609;28;20033;-54
2021/06/21 10:07:36;;;;;;;8.45;1.38;;;;;;;;;;5052332;28;20024;-54
2021/06/21 10:10:09;;;;;;;1.98;1.50;;;;;;;;;;5049845;28;20033;-54
2021/06/21 10:12:35;;;;;;;6.25;1.15;;;;;;;;;;5052501;28;20048;-54
2021/06/21 10:15:01;;;;;;;2.15;1.15;;;;;;;;;;5052745;28;20032;-54
2021/06/21 10:17:27;;;;;;;2.88;1.05;;;;;;;;;;5052515;28;20076;-54
2021/06/21 10:19:54;;;;;;;1.75;1.48;;;;;;;;;;5051732;28;20058;-54
2021/06/21 10:22:21;;;;;;;2.95;1.35;;;;;;;;;;5051653;28;20025;-54
2021/06/21 10:24:56;;;;;;;8.07;1.55;;;;;;;;;;5052334;28;20029;-53
2021/06/21 10:27:22;;;;;;;1.83;0.77;;;;;;;;;;5052588;28;20029;-53
2021/06/21 10:29:49;;;;;;;3.33;1.25;;;;;;;;;;5052348;28;20056;-53
2021/06/21 10:32:15;;;;;;;3.25;1.35;;;;;;;;;;5051274;28;20025;-53
2021/06/21 10:34:42;;;;;;;3.75;1.48;;;;;;;;;;5055020;28;20056;-53
2021/06/21 10:37:18;;;;;;;2.50;1.50;;;;;;;;;;5056212;28;20071;-53
2021/06/21 10:39:51;;;;;;;5.55;1.30;;;;;;;;;;5055947;28;20055;-53
2021/06/21 10:42:19;;;;;;;5.80;1.15;;;;;;;;;;5055206;28;20467;-53
2021/06/21 10:44:48;;;;;;;1.98;1.10;;;;;;;;;;5055580;28;20071;-53
2021/06/21 10:47:33;;;;;;;1.93;1.20;;;;;;;;;;5056159;28;20029;-53
2021/06/21 10:50:02;;;;;;;6.28;1.40;;;;;;;;;;5056096;28;20266;-53
2021/06/21 10:52:37;;;;;;;2.38;1.05;;;;;;;;;;5055668;28;20411;-54
2021/06/21 10:55:32;;;;;;;1.38;0.90;;;;;;;;;;5055386;28;20037;-53
2021/06/21 10:58:00;;;;;;;8.95;1.23;;;;;;;;;;5055937;28;20087;-53
2021/06/21 11:00:29;;;;;;;3.28;1.27;;;;;;;;;;5054865;28;20371;-53
2021/06/21 11:02:55;;;;;;;3.08;1.10;;;;;;;;;;5055764;28;20043;-53
2021/06/21 11:05:41;;;;;;;1.35;1.20;;;;;;;;;;5055626;28;20425;-54
2021/06/21 11:08:37;;;;;;;1.67;1.02;;;;;;;;;;5055751;28;20021;-53
2021/06/21 11:11:23;;;;;;;5.90;1.50;;;;;;;;;;5041196;28;20063;-53
2021/06/21 11:13:49;;;;;;;2.33;1.30;;;;;;;;;;5055004;28;20456;-53
2021/06/21 11:16:19;;;;;;;6.28;1.02;;;;;;;;;;5055745;28;20074;-53
2021/06/21 11:18:46;;;;;;;1.00;0.93;;;;;;;;;;5055420;28;20251;-54
2021/06/21 11:21:14;;;;;;;6.53;1.45;;;;;;;;;;5054608;28;20061;-54
2021/06/21 11:23:44;;;;;;;1.67;1.42;;;;;;;;;;5055151;28;20052;-53
2021/06/21 11:26:10;;;;;;;2.22;1.00;;;;;;;;;;5055668;28;20014;-53
2021/06/21 11:28:39;;;;;;;2.10;1.33;;;;;;;;;;5054633;28;20033;-54
2021/06/21 11:31:23;;;;;;;5.63;1.20;;;;;;;;;;5054456;28;20071;-53
2021/06/21 11:33:50;;;;;;;8.77;1.40;;;;;;;;;;5054934;28;20029;-53
2021/06/21 11:36:34;;;;;;;5.65;1.30;;;;;;;;;;5055028;28;20351;-53
2021/06/21 11:39:15;;;;;;;3.20;1.05;;;;;;;;;;5054677;28;20441;-53
2021/06/21 11:41:51;;;;;;;2.22;0.95;;;;;;;;;;5054270;28;20143;-53
2021/06/21 11:44:37;;;;;;;4.40;2.13;;;;;;;;;;5055152;28;20274;-53
2021/06/21 11:47:23;;;;;;;5.47;1.20;;;;;;;;;;5054242;28;20040;-53
2021/06/21 11:49:50;;;;;;;2.72;1.15;;;;;;;;;;5054431;28;20459;-53
2021/06/21 11:52:27;;;;;;;7.60;1.75;;;;;;;;;;5053888;28;20025;-53
2021/06/21 11:54:54;;;;;;;1.60;1.38;;;;;;;;;;5054458;28;20478;-53
2021/06/21 11:57:22;;;;;;;7.43;1.10;;;;;;;;;;5054725;28;20037;-53
2021/06/21 11:59:49;;;;;;;2.45;1.52;;;;;;;;;;5054488;28;20025;-53
2021/06/21 12:02:23;;;;;;;5.75;1.40;;;;;;;;;;5053767;28;20075;-53
2021/06/21 12:04:50;;;;;;;2.88;1.08;;;;;;;;;;5054780;28;20021;-53
2021/06/21 12:07:28;;;;;;;3.22;1.27;;;;;;;;;;5054544;28;20124;-54
2021/06/21 12:09:55;;;;;;;2.47;1.40;;;;;;;;;;5050419;28;20104;-54
2021/06/21 12:12:25;;;;;;;3.92;1.58;;;;;;;;;;4937320;28;20051;-54
2021/06/21 12:14:51;;;;;;;;;;;;;;;;;;5042176;28;20124;-54
2021/06/21 12:17:20;;;;;;;2.83;1.13;;;;;;;;;;5054445;28;20008;-53
2021/06/21 12:19:58;;;;;;;3.08;1.65;;;;;;;;;;5053586;28;20119;-53
2021/06/21 12:22:24;;;;;;;8.15;1.52;;;;;;;;;;5053682;28;20025;-53
2021/06/21 12:24:50;;;;;;;7.57;1.67;;;;;;;;;;5053665;28;20029;-54
2021/06/21 12:27:16;;;;;;;6.32;1.58;;;;;;;;;;5054025;28;20107;-53
2021/06/21 12:29:42;;;;;;;2.80;0.93;;;;;;;;;;5054301;28;20025;-53
2021/06/21 12:32:09;;;;;;;3.53;1.17;;;;;;;;;;5053235;28;20363;-54
2021/06/21 12:34:54;;;;;;;2.67;1.38;;;;;;;;;;5053964;28;20387;-53
2021/06/21 12:37:33;;;;;;;2.72;1.50;;;;;;;;;;5053542;28;20348;-53
2021/06/21 12:40:01;;;;;;;7.63;1.30;;;;;;;;;;5053652;28;20029;-53
2021/06/21 12:42:29;;;;;;;9.90;1.70;;;;;;;;;;5053215;28;20354;-53
2021/06/21 12:44:55;;;;;;;7.22;1.15;;;;;;;;;;5053652;28;20079;-53
2021/06/21 12:47:23;;;;;;;2.50;1.38;;;;;;;;;;5053445;28;20067;-53
2021/06/21 12:49:50;;;;;;;4.85;1.58;;;;;;;;;;5051719;28;20406;-53
2021/06/21 12:52:18;;;;;;;4.72;1.33;;;;;;;;;;5053119;28;20025;-53
2021/06/21 12:54:45;;;;;;;3.17;1.45;;;;;;;;;;5053776;28;20036;-54
2021/06/21 12:57:11;;;;;;;9.35;1.55;;;;;;;;;;5053598;28;20117;-53
2021/06/21 12:59:41;;;;;;;9.40;1.30;;;;;;;;;;5053352;28;20056;-53
2021/06/21 13:02:08;;;;;;;2.38;1.23;;;;;;;;;;5052827;28;20036;-53
2021/06/21 13:04:34;;;;;;;5.75;2.22;;;;;;;;;;5053414;28;20117;-53
2021/06/21 13:07:06;;;;;;;5.05;1.27;;;;;;;;;;5053597;28;20017;-53
2021/06/21 13:09:44;;;;;;;4.30;1.25;;;;;;;;;;5053646;28;20033;-53
2021/06/21 13:12:18;;;;;;;5.45;1.40;;;;;;;;;;5052629;28;20100;-54
2021/06/21 13:14:44;;;;;;;2.40;1.10;;;;;;;;;;5052628;28;20072;-53
2021/06/21 13:17:20;;;;;;;6.03;1.65;;;;;;;;;;5053416;28;20110;-53
2021/06/21 13:19:53;;;;;;;2.58;0.93;;;;;;;;;;5053459;28;20033;-53
2021/06/21 13:22:30;;;;;;;6.25;1.67;;;;;;;;;;5052426;28;20028;-53
2021/06/21 13:24:57;;;;;;;6.70;1.65;;;;;;;;;;5053245;28;20028;-53
2021/06/21 13:27:25;;;;;;;4.22;1.80;;;;;;;;;;5053131;28;20032;-53
2021/06/21 13:29:52;;;;;;;6.18;1.40;;;;;;;;;;5052689;28;20402;-53
2021/06/21 13:32:20;;;;;;;2.33;1.10;;;;;;;;;;5052071;28;20028;-53
2021/06/21 13:34:49;;;;;;;5.88;1.75;;;;;;;;;;5053033;28;20029;-53
2021/06/21 13:37:22;;;;;;;6.35;1.85;;;;;;;;;;5052706;28;20021;-53
2021/06/21 13:39:52;;;;;;;8.77;1.75;;;;;;;;;;5052463;28;20368;-53
2021/06/21 13:42:28;;;;;;;2.63;1.20;;;;;;;;;;5052176;28;20021;-53
2021/06/21 13:44:54;;;;;;;1.88;1.00;;;;;;;;;;5045915;28;20364;-54
2021/06/21 13:47:38;;;;;;;5.47;1.48;;;;;;;;;;5041626;28;20018;-53
2021/06/21 13:50:06;;;;;;;4.95;1.35;;;;;;;;;;5051776;28;20102;-53
2021/06/21 13:52:48;;;;;;;4.03;1.42;;;;;;;;;;5052910;28;20029;-53
2021/06/21 13:55:16;;;;;;;1.42;1.20;;;;;;;;;;5052954;28;20091;-53
2021/06/21 13:57:49;;;;;;;5.95;1.55;;;;;;;;;;5052514;28;20078;-53
2021/06/21 14:00:33;;;;;;;1.95;1.42;;;;;;;;;;5051860;28;20120;-53
2021/06/21 14:03:00;;;;;;;5.97;1.50;;;;;;;;;;5052866;28;20036;-54
2021/06/21 14:05:26;;;;;;;3.72;1.45;;;;;;;;;;5052497;28;20025;-53
2021/06/21 14:07:53;;;;;;;5.63;1.48;;;;;;;;;;5052870;28;20035;-53
2021/06/21 14:10:20;;;;;;;3.00;1.50;;;;;;;;;;5056208;28;20017;-53
2021/06/21 14:12:46;;;;;;;6.25;1.20;;;;;;;;;;5056338;28;20036;-53
2021/06/21 14:15:12;;;;;;;2.05;1.10;;;;;;;;;;5056485;28;20333;-53
2021/06/21 14:17:38;;;;;;;4.05;1.25;;;;;;;;;;5056428;28;20037;-53
2021/06/21 14:20:05;;;;;;;5.38;1.33;;;;;;;;;;5055835;28;20037;-53
2021/06/21 14:22:31;;;;;;;3.85;1.38;;;;;;;;;;5056292;28;20362;-53
2021/06/21 14:24:57;;;;;;;4.38;1.52;;;;;;;;;;5056701;28;20021;-53
2021/06/21 14:27:23;;;;;;;7.60;1.80;;;;;;;;;;5056421;28;20037;-53
2021/06/21 14:29:49;;;;;;;5.05;1.58;;;;;;;;;;5055753;28;20024;-53
2021/06/21 14:32:15;;;;;;;7.28;1.67;;;;;;;;;;5055852;28;20028;-54
2021/06/21 14:34:41;;;;;;;1.92;1.42;;;;;;;;;;5056318;28;20133;-54
2021/06/21 14:37:07;;;;;;;3.33;1.60;;;;;;;;;;5051197;28;20467;-54
2021/06/21 14:39:33;;;;;;;5.68;1.20;;;;;;;;;;5048785;28;20356;-54
2021/06/21 14:41:59;;;;;;;2.83;1.23;;;;;;;;;;5044284;28;20050;-54
2021/06/21 14:44:25;;;;;;;6.50;1.70;;;;;;;;;;5036120;28;20380;-54
2021/06/21 14:46:51;;;;;;;8.10;1.92;;;;;;;;;;5035893;28;20045;-54
2021/06/21 14:49:17;;;;;;;3.15;1.00;;;;;;;;;;5036362;28;20033;-54
2021/06/21 14:51:43;;;;;;;1.40;1.00;;;;;;;;;;5035288;28;20163;-54